Station info - map view · info · telemetry · weather · raw · status · beacons · messages · bulletins · browse · moving · my account
Callsign, ship name or locator: Clear       
It is possible to search using wildcards (*?) after a prefix. Example: OH*
APRS station OK1XFJ - show graphs
Map loading...
Comment: Scan 2m/70cm
Mic-E message: En route
Location: 50°09.72' N 13°36.29' E - locator JO60TD28NV - show map - static map
7.0 miles Northwest bearing 305° from Rakovník, Středočeský Kraj, Czech Republic [?]
7.5 miles Northeast bearing 53° from Jesenice, Středočeský Kraj, Czech Republic
36.5 miles West bearing 278° from Prague, Hlavní Mesto Praha, Czech Republic
61.7 miles South bearing 185° from Dresden, Direktionsbezirk Dresden, Saxony, Germany
Last position: 2018-09-08 09:28:41 EDT (13d 10h32m ago)
2018-09-08 15:28:41 CEST local time at Rakovník, Czech Republic [?]
Altitude: 1263 ft
Course: 82°
Speed: 27 MPH
Device: Yaesu: FTM-350 (rig)
Last path: OK1XFJ>UP0Y72 via OK0DRB-1,WIDE1,OK1TEC-3,OK0BBK-2,WIDE2*,qAR,OK1KHL-1,T2CZECH (good)
Positions stored: 96030
Other SSIDs: OK1XFJ-10 OK1XFJ-9
Stations near current position of OK1XFJ - show more
callsign distance last heard - EDT      callsign distance last heard - EDT
OK3AR5.2 miles 256°2018-09-08 03:55:44 N51300295.7 miles 316°2018-09-03 03:48:59
N5130029_5.7 miles 315°2018-09-03 03:49:15 P07105935.9 miles 92°2018-09-12 16:51:41
TS-53E5.9 miles 284°2018-09-21 12:54:07 P0710593_6.0 miles 93°2018-09-12 16:52:12
ok7rb-106.1 miles 83°2018-09-09 16:30:07 OK1ITE-106.9 miles 234°2018-09-15 05:27:35
TS-56E7.1 miles 277°2018-09-21 12:57:03 OK7AR7.2 miles 282°2018-09-21 02:19:26
OK0DRB-17.3 miles 219°2018-09-21 20:00:19 OK0DRB B7.3 miles 219°2018-09-21 19:57:05
OK0DRB-B7.3 miles 219°2018-09-21 19:57:15 OK0DRB-R7.3 miles 219°2018-09-21 19:54:37
TS-57E7.8 miles 222°2018-09-21 12:58:07 M44162147.8 miles 312°2018-08-29 02:18:11
M4416214_7.8 miles 312°2018-08-29 02:19:14 TS-00F8.1 miles 211°2018-09-21 13:01:02
TS-05F8.2 miles 186°2018-09-21 13:06:08 TS-18F8.4 miles 111°2018-09-21 13:19:09
Stations which heard OK1XFJ directly on radio –
callsign pkts first heard - EDT last heard longest (tx => rx) longest at - EDT
OE2XHR-11 24 2018-09-01 06:05:00 2018-09-01 09:37:50 JN69OU > JN67MK 167.0 miles 182° 2018-09-01 09:37:50
DB0REN 1 2018-09-01 04:21:19 2018-09-01 04:21:19 JO60IC > JO50RK 61.2 miles 294° 2018-09-01 04:21:19
OK1KZE-1 72 2018-09-01 05:03:27 2018-09-08 02:03:12 JN69MX > JN79FX 59.8 miles 89° 2018-09-01 05:03:27
OK1TEC-3 1 2018-09-08 01:46:14 2018-09-08 01:46:14 JO60WD > JO60WQ 37.7 miles 357° 2018-09-08 01:46:14
DL3NDS 3 2018-09-01 04:20:44 2018-09-01 04:23:21 JO60IC > JO60AB 32.3 miles 264° 2018-09-01 04:23:21
OK5TVR-1 1 2018-09-01 12:01:14 2018-09-01 12:01:14 JN69QS > JN69PS 2.4 miles 294° 2018-09-01 12:01:14
OK0BCA-1 14 2018-09-08 00:55:25 2018-09-08 01:59:09 JO60UE > JO70UQ 95.5 miles 67° 2018-09-08 01:59:09
OK1LOL-1 25 2018-09-01 12:58:07 2018-09-08 01:30:03 JO70GC > JO70EB 8.4 miles 260° 2018-09-08 00:52:44
OK7ED-2 9 2018-09-01 12:49:45 2018-09-08 01:50:46 JO60VE > JO70DC 19.7 miles 101° 2018-09-08 01:50:46
OK0BBK-2 30 2018-09-01 12:54:45 2018-09-08 01:59:08 JO60UE > JO70PO 75.4 miles 67° 2018-09-08 01:59:08
OK1CMJ-2 2 2018-09-01 05:10:47 2018-09-01 12:22:25 JN69NV > JN69VP 33.9 miles 117° 2018-09-01 05:10:47
OK0DRB-1 54 2018-09-01 04:21:52 2018-09-08 09:28:34 JO60IC > JO60SB 34.2 miles 92° 2018-09-01 04:21:52
DB7MM-1 82 2018-09-01 05:06:20 2018-09-01 12:01:54 JN69MW > JN69MF 46.8 miles 182° 2018-09-01 05:06:20
OK1HOT-2 6 2018-09-01 12:56:25 2018-09-08 01:30:26 JO70EA > JO70DB 4.0 miles 298° 2018-09-01 13:02:54
OE5XHR-10 4 2018-09-01 06:11:03 2018-09-01 09:23:47 JN69OU > JN68XR 82.9 miles 156° 2018-09-01 09:23:47
OK0BAD-2 75 2018-09-01 04:32:10 2018-09-08 09:23:31 JO60JC > JN79AS 58.8 miles 111° 2018-09-01 04:38:29
SR6NPK 3 2018-09-08 01:18:59 2018-09-08 01:36:33 JO70BC > JO70TS 81.1 miles 55° 2018-09-08 01:36:33
DO1FMI 1 2018-09-01 06:08:03 2018-09-01 06:08:03 JN69OU > JN67MQ 148.8 miles 183° 2018-09-01 06:08:03
OK1RPL-1 20 2018-09-01 04:36:55 2018-09-01 12:32:16 JO60JC > JN69QR 36.0 miles 135° 2018-09-01 04:36:55
OK0DJ-1 3 2018-09-08 01:24:24 2018-09-08 01:36:12 JO70BC > JO70LR 57.7 miles 41° 2018-09-08 01:36:12
OK1OQH-2 1 2018-09-01 12:40:37 2018-09-01 12:40:37 JN69XV > JN79DQ 23.4 miles 129° 2018-09-01 12:40:37
OK1RPL-2 142 2018-09-01 05:19:11 2018-09-01 12:14:07 JN69OU > JN69PS 8.2 miles 128° 2018-09-01 09:41:08
OK1DJO-3 1 2018-09-01 13:08:27 2018-09-01 13:08:27 JO70EA > JO70DB 4.2 miles 285° 2018-09-01 13:08:27
OK1TZL-1 15 2018-09-01 04:08:09 2018-09-01 05:01:05 JN69MX > JO60II 28.4 miles 327° 2018-09-01 05:01:05
OK1KUN-1 2 2018-09-01 05:15:40 2018-09-01 05:16:38 JN69OU > JN69OQ 11.9 miles 181° 2018-09-01 05:15:40
OK0BPL-1 178 2018-09-01 04:20:00 2018-09-08 02:08:30 JO60IC > JN69RQ 44.4 miles 131° 2018-09-01 04:20:00
DB0SLF 1 2018-09-01 04:20:17 2018-09-01 04:20:17 JO60IC > JO50QP 70.7 miles 302° 2018-09-01 04:20:17
DB0FGB 11 2018-09-01 04:07:10 2018-09-01 04:27:48 JO60IC > JO50WB 39.7 miles 265° 2018-09-01 04:25:11

Only position packets which were originated by the station are shown here. The range statistics show some extra long hops, because some digipeaters do not correctly add themselves to the digipeater path. Please check the raw packets.
About this site
This page shows real-time information collected from the Automatic Position Reporting System Internet network (APRS-IS). APRS is used by amateur (ham) radio operators to transmit real-time position information, weather data, telemetry and messages over the radio. A vehicle equipped with a GPS receiver, a VHF transmitter or HF transceiver and a small computer device called a tracker transmits it's location, speed and course in a small data packet, which is then received by a nearby iGate receiving site which forwards the packet on the Internet. Systems connected to the Internet can send information on the APRS-IS without a radio transmitter, or collect and display information transmitted anywhere in the world.
FAQ · Blog · Discussion group · Linking to aprs.fi · AIS sites · Service status · Database statistics · Advertising on aprs.fi · Technical details · API · Change log · Planned changes · Credits and thanks · Terms Of Service · iPhone/iPad APRS